Terminal Aerodrome Forecast
Issued by NWS Shreveport, LA

Home | Current Version | Previous Version | Text Only | Print | Product List | Glossary On
Versions: 1 2 3 4 5 6 7 8 9 10 11 12 13 14 15 16 17 18
000
FTUS44 KSHV 230500
TAFMLU
TAF
KMLU 230523Z 2306/2406 VRB03KT 3SM BR SKC
      TEMPO 2309/2313 1SM BR
     FM231600 09005KT P6SM FEW045
     FM240000 13004KT P6SM SKC=

USA.gov is the U.S. government's official web portal to all federal, state and local government web resources and services.